Time;durP1;ratioP1;P1;durP2;ratioP2;P2;SDS_P1;SDS_P2;PMS_P1;PMS_P2;Temp;Humidity;BMP_temperature;BMP_pressure;BME280_temperature;BME280_humidity;BME280_pressure;Samples;Min_cycle;Max_cycle;Signal;HPM_P1;HPM_P2
2022/03/20 00:00:00;;;;;;;7.30;5.50;;;;;;;;;;5073586;28;20430;-59
2022/03/20 00:02:28;;;;;;;9.53;5.90;;;;;;;;;;5074143;28;20445;-58
2022/03/20 00:04:55;;;;;;;10.00;5.40;;;;;;;;;;5073954;28;20208;-58
2022/03/20 00:07:21;;;;;;;9.97;6.50;;;;;;;;;;5073665;28;21322;-58
2022/03/20 00:09:50;;;;;;;9.03;5.90;;;;;;;;;;5073856;28;20434;-59
2022/03/20 00:12:16;;;;;;;8.50;6.00;;;;;;;;;;5073439;28;20836;-58
2022/03/20 00:14:42;;;;;;;8.53;6.17;;;;;;;;;;5073860;28;20978;-59
2022/03/20 00:17:08;;;;;;;7.20;6.43;;;;;;;;;;5073654;28;20250;-59
2022/03/20 00:19:34;;;;;;;11.37;6.97;;;;;;;;;;5073653;28;20442;-59
2022/03/20 00:22:01;;;;;;;10.00;7.20;;;;;;;;;;5073724;28;20207;-59
2022/03/20 00:24:27;;;;;;;11.90;6.63;;;;;;;;;;5073260;28;20512;-59
2022/03/20 00:26:56;;;;;;;9.50;7.40;;;;;;;;;;5073442;28;20481;-59
2022/03/20 00:29:23;;;;;;;10.33;7.20;;;;;;;;;;5073373;28;20800;-59
2022/03/20 00:31:48;;;;;;;10.30;7.30;;;;;;;;;;5073177;28;20462;-59
2022/03/20 00:34:14;;;;;;;9.00;7.50;;;;;;;;;;5071453;28;21073;-60
2022/03/20 00:36:40;;;;;;;9.73;7.50;;;;;;;;;;5073477;28;20207;-59
2022/03/20 00:39:08;;;;;;;10.97;7.40;;;;;;;;;;5073327;28;20210;-59
2022/03/20 00:41:34;;;;;;;11.47;7.90;;;;;;;;;;5073106;28;20215;-59
2022/03/20 00:44:00;;;;;;;10.03;7.33;;;;;;;;;;5073129;28;20442;-60
2022/03/20 00:46:27;;;;;;;12.80;7.73;;;;;;;;;;5073165;28;20202;-59
2022/03/20 00:48:53;;;;;;;9.53;7.17;;;;;;;;;;5073082;28;20517;-59
2022/03/20 00:51:19;;;;;;;12.50;8.33;;;;;;;;;;5073115;28;20520;-59
2022/03/20 00:53:46;;;;;;;12.47;8.33;;;;;;;;;;5073111;28;20597;-60
2022/03/20 00:56:14;;;;;;;9.90;8.17;;;;;;;;;;5072958;28;20204;-59
2022/03/20 00:58:40;;;;;;;10.17;7.87;;;;;;;;;;5072984;28;20441;-61
2022/03/20 01:01:10;;;;;;;10.40;8.30;;;;;;;;;;5072484;28;20426;-59
2022/03/20 01:03:38;;;;;;;11.70;8.67;;;;;;;;;;5068185;28;20437;-59
2022/03/20 01:06:06;;;;;;;11.37;9.00;;;;;;;;;;5070506;28;20434;-59
2022/03/20 01:08:32;;;;;;;13.13;9.30;;;;;;;;;;5072737;28;20480;-59
2022/03/20 01:10:58;;;;;;;10.73;8.43;;;;;;;;;;5071584;28;20793;-59
2022/03/20 01:13:26;;;;;;;11.60;8.20;;;;;;;;;;5072500;28;20210;-59
2022/03/20 01:15:52;;;;;;;12.93;9.60;;;;;;;;;;5072095;28;20461;-59
2022/03/20 01:18:19;;;;;;;12.80;9.20;;;;;;;;;;5072230;28;20437;-59
2022/03/20 01:20:45;;;;;;;14.63;9.90;;;;;;;;;;5072445;28;20464;-59
2022/03/20 01:23:12;;;;;;;11.53;9.90;;;;;;;;;;5072132;28;20523;-59
2022/03/20 01:25:40;;;;;;;12.60;9.50;;;;;;;;;;5072129;28;20231;-59
2022/03/20 01:28:06;;;;;;;13.63;9.90;;;;;;;;;;5072042;28;20534;-59
2022/03/20 01:30:33;;;;;;;11.80;8.80;;;;;;;;;;5072199;28;20426;-59
2022/03/20 01:32:59;;;;;;;12.00;9.73;;;;;;;;;;5072066;28;20448;-59
2022/03/20 01:35:25;;;;;;;14.43;9.67;;;;;;;;;;5071899;28;20525;-59
2022/03/20 01:37:51;;;;;;;12.60;9.40;;;;;;;;;;5071917;28;20430;-59
2022/03/20 01:40:17;;;;;;;11.60;9.40;;;;;;;;;;5071741;28;20438;-59
2022/03/20 01:42:44;;;;;;;14.93;10.20;;;;;;;;;;5071870;28;20441;-59
2022/03/20 01:45:13;;;;;;;12.77;9.87;;;;;;;;;;5071728;28;20566;-59
2022/03/20 01:47:41;;;;;;;12.10;10.13;;;;;;;;;;5071803;28;20469;-59
2022/03/20 01:50:07;;;;;;;14.90;10.23;;;;;;;;;;5071687;28;20440;-59
2022/03/20 01:52:33;;;;;;;12.33;9.97;;;;;;;;;;5071866;28;20481;-59
2022/03/20 01:54:59;;;;;;;13.97;10.27;;;;;;;;;;5071896;28;20469;-59
2022/03/20 01:57:26;;;;;;;11.87;9.63;;;;;;;;;;5071984;28;20195;-59
2022/03/20 01:59:52;;;;;;;14.57;9.87;;;;;;;;;;5071886;28;20286;-59
2022/03/20 02:02:18;;;;;;;14.60;10.37;;;;;;;;;;5071494;28;20453;-59
2022/03/20 02:04:46;;;;;;;13.53;10.83;;;;;;;;;;5071882;28;20460;-59
2022/03/20 02:07:12;;;;;;;12.90;9.63;;;;;;;;;;5071451;28;20465;-59
2022/03/20 02:09:40;;;;;;;15.40;10.50;;;;;;;;;;5071533;28;20426;-59
2022/03/20 02:12:07;;;;;;;13.13;9.83;;;;;;;;;;5071496;28;20488;-59
2022/03/20 02:14:33;;;;;;;14.47;10.87;;;;;;;;;;5071524;28;20442;-59
2022/03/20 02:17:00;;;;;;;10.93;9.50;;;;;;;;;;5071466;28;20467;-59
2022/03/20 02:19:27;;;;;;;15.47;10.80;;;;;;;;;;5071333;28;20849;-59
2022/03/20 02:21:55;;;;;;;12.97;8.93;;;;;;;;;;5071116;28;20525;-59
2022/03/20 02:24:32;;;;;;;11.33;9.50;;;;;;;;;;5071049;28;21090;-59
2022/03/20 02:27:04;;;;;;;12.87;9.60;;;;;;;;;;5071272;28;20469;-59
2022/03/20 02:29:30;;;;;;;14.23;9.43;;;;;;;;;;5071248;28;20520;-59
2022/03/20 02:31:58;;;;;;;12.83;10.30;;;;;;;;;;5071383;28;20521;-59
2022/03/20 02:34:24;;;;;;;11.80;10.00;;;;;;;;;;5071031;28;20218;-59
2022/03/20 02:36:50;;;;;;;13.70;10.70;;;;;;;;;;5071249;28;20445;-59
2022/03/20 02:39:18;;;;;;;15.60;10.17;;;;;;;;;;5071329;28;20468;-59
2022/03/20 02:41:44;;;;;;;13.93;9.90;;;;;;;;;;5071405;28;20446;-59
2022/03/20 02:44:10;;;;;;;13.43;10.37;;;;;;;;;;5071209;28;20430;-59
2022/03/20 02:46:37;;;;;;;14.90;10.30;;;;;;;;;;5071088;28;20521;-59
2022/03/20 02:49:04;;;;;;;12.47;9.93;;;;;;;;;;5071052;28;20487;-59
2022/03/20 02:51:30;;;;;;;11.20;9.30;;;;;;;;;;5071417;28;20449;-59
2022/03/20 02:53:57;;;;;;;16.10;10.40;;;;;;;;;;5071364;28;20437;-59
2022/03/20 02:56:28;;;;;;;12.93;9.50;;;;;;;;;;5071047;28;20685;-59
2022/03/20 02:58:54;;;;;;;10.90;9.13;;;;;;;;;;5070889;28;20438;-59
2022/03/20 03:01:21;;;;;;;13.77;10.40;;;;;;;;;;5070911;28;21086;-59
2022/03/20 03:03:47;;;;;;;11.27;9.70;;;;;;;;;;5071100;28;20513;-59
2022/03/20 03:06:13;;;;;;;11.30;10.00;;;;;;;;;;5071034;28;20928;-59
2022/03/20 03:11:25;;;;;;;16.63;10.23;;;;;;;;;;5070951;28;20237;-59
2022/03/20 03:13:51;;;;;;;11.43;9.53;;;;;;;;;;5070945;28;20433;-60
2022/03/20 03:16:17;;;;;;;14.27;11.00;;;;;;;;;;5070778;28;20507;-59
2022/03/20 03:18:44;;;;;;;15.53;11.00;;;;;;;;;;5070783;28;20601;-59
2022/03/20 03:21:11;;;;;;;12.30;10.57;;;;;;;;;;5070659;28;20962;-59
2022/03/20 03:23:37;;;;;;;11.90;10.40;;;;;;;;;;5070708;28;20481;-59
2022/03/20 03:26:04;;;;;;;13.00;11.17;;;;;;;;;;5070722;28;20438;-60
2022/03/20 03:28:34;;;;;;;13.17;10.90;;;;;;;;;;5070912;28;20495;-60
2022/03/20 03:31:01;;;;;;;13.90;11.00;;;;;;;;;;5070950;28;20434;-60
2022/03/20 03:33:27;;;;;;;12.63;10.10;;;;;;;;;;5071563;28;20441;-60
2022/03/20 03:35:57;;;;;;;19.93;11.13;;;;;;;;;;5074378;28;20430;-60
2022/03/20 03:38:24;;;;;;;13.93;11.43;;;;;;;;;;5074186;28;20430;-60
2022/03/20 03:40:50;;;;;;;13.87;11.30;;;;;;;;;;5074251;28;20437;-60
2022/03/20 03:43:17;;;;;;;14.93;11.70;;;;;;;;;;5074306;28;20429;-60
2022/03/20 03:45:45;;;;;;;12.77;11.13;;;;;;;;;;5074235;28;20856;-60
2022/03/20 03:48:12;;;;;;;16.33;11.70;;;;;;;;;;5073803;28;20477;-60
2022/03/20 03:50:38;;;;;;;15.13;11.57;;;;;;;;;;5073988;28;20495;-60
2022/03/20 03:53:05;;;;;;;13.77;11.40;;;;;;;;;;5074135;28;20437;-60
2022/03/20 03:55:31;;;;;;;15.00;11.43;;;;;;;;;;5073976;28;20474;-60
2022/03/20 03:57:57;;;;;;;15.13;11.13;;;;;;;;;;5073965;28;20426;-60
2022/03/20 04:00:24;;;;;;;14.60;11.27;;;;;;;;;;5073875;28;20808;-60
2022/03/20 04:02:51;;;;;;;15.60;11.00;;;;;;;;;;5073817;28;20438;-60
2022/03/20 04:05:17;;;;;;;16.33;12.23;;;;;;;;;;5073601;28;21050;-60
2022/03/20 04:07:44;;;;;;;13.23;11.27;;;;;;;;;;5073887;28;20503;-60
2022/03/20 04:10:10;;;;;;;15.03;11.40;;;;;;;;;;5073872;28;20510;-60
2022/03/20 04:12:37;;;;;;;13.93;11.50;;;;;;;;;;5073598;28;20430;-60
2022/03/20 04:15:03;;;;;;;14.37;11.20;;;;;;;;;;5073509;28;20924;-59
2022/03/20 04:17:29;;;;;;;15.83;12.10;;;;;;;;;;5073609;28;20426;-59
2022/03/20 04:19:57;;;;;;;15.00;11.73;;;;;;;;;;5073343;28;20852;-60
2022/03/20 04:22:23;;;;;;;16.20;11.80;;;;;;;;;;5073338;28;20912;-60
2022/03/20 04:24:50;;;;;;;15.23;11.13;;;;;;;;;;5073397;28;20912;-60
2022/03/20 04:27:17;;;;;;;14.80;11.43;;;;;;;;;;5073192;28;20489;-60
2022/03/20 04:29:43;;;;;;;14.03;11.53;;;;;;;;;;5073477;28;20432;-59
2022/03/20 04:32:11;;;;;;;15.10;11.53;;;;;;;;;;5073329;28;20199;-60
2022/03/20 04:34:37;;;;;;;15.37;12.27;;;;;;;;;;5073165;28;20422;-60
2022/03/20 04:37:06;;;;;;;14.80;11.97;;;;;;;;;;5072998;28;20445;-60
2022/03/20 04:39:32;;;;;;;15.57;11.67;;;;;;;;;;5073072;28;20442;-60
2022/03/20 04:41:58;;;;;;;15.60;11.93;;;;;;;;;;5073108;28;20453;-60
2022/03/20 04:44:25;;;;;;;16.93;12.00;;;;;;;;;;5072810;28;20426;-59
2022/03/20 04:46:51;;;;;;;15.53;11.30;;;;;;;;;;5072637;28;20279;-60
2022/03/20 05:00:21;;;;;;;13.80;11.77;;;;;;;;;;5073001;28;21117;-60
2022/03/20 05:02:47;;;;;;;13.97;12.03;;;;;;;;;;5072721;28;20482;-60
2022/03/20 05:05:13;;;;;;;15.33;11.57;;;;;;;;;;5072583;28;20507;-59
2022/03/20 05:07:39;;;;;;;17.17;12.53;;;;;;;;;;5072637;28;20510;-60
2022/03/20 05:15:36;;;;;;;16.00;11.90;;;;;;;;;;5072501;28;20430;-59
2022/03/20 05:18:03;;;;;;;17.53;12.80;;;;;;;;;;5072146;28;20448;-59
2022/03/20 05:20:29;;;;;;;15.97;12.07;;;;;;;;;;5072297;28;20451;-60
2022/03/20 05:22:54;;;;;;;16.70;11.33;;;;;;;;;;5072188;28;20430;-60
2022/03/20 05:25:22;;;;;;;13.00;10.67;;;;;;;;;;5071953;28;20824;-59
2022/03/20 05:27:48;;;;;;;14.00;10.50;;;;;;;;;;5072034;28;20304;-59
2022/03/20 05:30:15;;;;;;;15.13;11.87;;;;;;;;;;5072081;28;20426;-59
2022/03/20 05:32:41;;;;;;;16.00;12.20;;;;;;;;;;5072017;28;20672;-59
2022/03/20 05:35:08;;;;;;;17.90;12.27;;;;;;;;;;5072073;28;20448;-60
2022/03/20 05:37:34;;;;;;;16.70;11.97;;;;;;;;;;5072225;28;20438;-60
2022/03/20 05:40:00;;;;;;;14.57;11.03;;;;;;;;;;5071978;28;20441;-60
2022/03/20 05:42:28;;;;;;;14.50;11.07;;;;;;;;;;5071810;28;20936;-59
2022/03/20 05:44:54;;;;;;;16.93;11.53;;;;;;;;;;5071771;28;20438;-59
2022/03/20 05:47:20;;;;;;;16.43;11.40;;;;;;;;;;5071800;28;20465;-59
2022/03/20 05:49:46;;;;;;;14.03;11.63;;;;;;;;;;5071963;28;20499;-59
2022/03/20 05:52:16;;;;;;;13.73;11.57;;;;;;;;;;5071786;28;20188;-60
2022/03/20 05:54:42;;;;;;;16.43;11.73;;;;;;;;;;5071849;28;20429;-59
2022/03/20 05:59:55;;;;;;;15.57;12.40;;;;;;;;;;5071634;28;20543;-61
2022/03/20 06:02:22;;;;;;;13.07;11.17;;;;;;;;;;5071533;28;20477;-60
2022/03/20 06:04:48;;;;;;;15.80;12.27;;;;;;;;;;5071622;28;20521;-59
2022/03/20 06:07:14;;;;;;;17.97;11.83;;;;;;;;;;5071458;28;20507;-60
2022/03/20 06:09:40;;;;;;;13.70;11.43;;;;;;;;;;5071587;28;20433;-60
2022/03/20 06:12:07;;;;;;;16.50;11.73;;;;;;;;;;5071378;28;20434;-59
2022/03/20 06:14:34;;;;;;;16.17;12.57;;;;;;;;;;5071309;28;20495;-59
2022/03/20 06:17:02;;;;;;;14.60;12.03;;;;;;;;;;5071536;28;20468;-59
2022/03/20 06:19:28;;;;;;;15.53;12.17;;;;;;;;;;5071289;28;20924;-59
2022/03/20 06:21:54;;;;;;;12.57;10.97;;;;;;;;;;5071390;28;20544;-59
2022/03/20 06:24:20;;;;;;;15.73;11.77;;;;;;;;;;5071039;28;20473;-60
2022/03/20 06:26:46;;;;;;;17.60;12.83;;;;;;;;;;5061327;28;20477;-60
2022/03/20 06:29:12;;;;;;;17.53;13.67;;;;;;;;;;5051230;28;20224;-60
2022/03/20 06:31:38;;;;;;;15.60;12.37;;;;;;;;;;5051232;28;20971;-59
2022/03/20 06:34:06;;;;;;;17.87;12.70;;;;;;;;;;5051226;28;20196;-60
2022/03/20 06:36:32;;;;;;;20.30;12.73;;;;;;;;;;5051036;28;20655;-60
2022/03/20 06:38:58;;;;;;;20.50;12.67;;;;;;;;;;5051343;28;20435;-59
2022/03/20 06:41:24;;;;;;;19.10;12.60;;;;;;;;;;5050819;28;20809;-60
2022/03/20 06:43:50;;;;;;;16.93;12.80;;;;;;;;;;5050895;28;20434;-59
2022/03/20 06:46:16;;;;;;;18.13;13.00;;;;;;;;;;5053634;28;20207;-60
2022/03/20 06:48:43;;;;;;;15.80;12.53;;;;;;;;;;5051100;28;20562;-60
2022/03/20 06:51:10;;;;;;;17.57;12.90;;;;;;;;;;5056100;28;20426;-60
2022/03/20 06:53:36;;;;;;;17.43;12.73;;;;;;;;;;5050887;28;20458;-59
2022/03/20 06:56:03;;;;;;;14.90;12.30;;;;;;;;;;5051042;28;20446;-59
2022/03/20 06:58:29;;;;;;;18.37;12.13;;;;;;;;;;5050954;28;20987;-59
2022/03/20 07:00:55;;;;;;;19.37;12.57;;;;;;;;;;5050998;28;20484;-60
2022/03/20 07:03:21;;;;;;;15.93;12.77;;;;;;;;;;5050760;28;20458;-60
2022/03/20 07:05:47;;;;;;;19.23;12.23;;;;;;;;;;5050889;28;20797;-59
2022/03/20 07:08:15;;;;;;;15.23;12.03;;;;;;;;;;5051327;28;20224;-59
2022/03/20 07:10:42;;;;;;;16.63;12.83;;;;;;;;;;5054919;28;20459;-59
2022/03/20 07:15:57;;;;;;;17.03;12.20;;;;;;;;;;5054633;28;20923;-59
2022/03/20 07:18:24;;;;;;;16.07;12.03;;;;;;;;;;5054577;28;20526;-59
2022/03/20 07:20:50;;;;;;;18.87;12.93;;;;;;;;;;5054518;28;20845;-60
2022/03/20 07:23:17;;;;;;;16.27;12.07;;;;;;;;;;5054236;28;20465;-60
2022/03/20 07:31:14;;;;;;;15.23;12.17;;;;;;;;;;5054606;28;20987;-60
2022/03/20 07:33:40;;;;;;;17.30;12.33;;;;;;;;;;5054439;28;20798;-60
2022/03/20 07:36:07;;;;;;;15.97;11.63;;;;;;;;;;5054180;28;20430;-60
2022/03/20 07:38:35;;;;;;;15.33;12.03;;;;;;;;;;5054249;28;20426;-59
2022/03/20 07:41:01;;;;;;;15.57;12.00;;;;;;;;;;5054249;28;20442;-59
2022/03/20 07:43:27;;;;;;;17.83;11.93;;;;;;;;;;5054121;28;20434;-60
2022/03/20 07:45:56;;;;;;;19.40;12.27;;;;;;;;;;5054232;28;20462;-59
2022/03/20 07:48:23;;;;;;;20.17;12.50;;;;;;;;;;5054073;28;20516;-61
2022/03/20 07:50:50;;;;;;;17.50;12.50;;;;;;;;;;5053884;28;20502;-58
2022/03/20 07:53:17;;;;;;;17.50;12.13;;;;;;;;;;5053940;28;20855;-62
2022/03/20 07:55:45;;;;;;;17.13;12.73;;;;;;;;;;5054144;28;20430;-60
2022/03/20 07:58:12;;;;;;;16.83;12.70;;;;;;;;;;5053822;28;20807;-61
2022/03/20 08:00:39;;;;;;;16.90;12.90;;;;;;;;;;5053906;28;20921;-60
2022/03/20 08:03:05;;;;;;;18.00;12.43;;;;;;;;;;5053801;28;20802;-59
2022/03/20 08:05:31;;;;;;;14.47;11.47;;;;;;;;;;5053907;28;20458;-53
2022/03/20 08:07:58;;;;;;;17.77;12.77;;;;;;;;;;5053799;28;21071;-56
2022/03/20 08:10:24;;;;;;;13.40;10.97;;;;;;;;;;5053744;28;20258;-54
2022/03/20 08:12:51;;;;;;;17.67;13.00;;;;;;;;;;5053907;28;20470;-54
2022/03/20 08:15:17;;;;;;;19.07;13.50;;;;;;;;;;5053742;28;20212;-54
2022/03/20 08:17:44;;;;;;;15.50;12.37;;;;;;;;;;5053735;28;20193;-54
2022/03/20 08:20:10;;;;;;;17.03;12.80;;;;;;;;;;5053197;28;20207;-54
2022/03/20 08:22:37;;;;;;;17.97;14.10;;;;;;;;;;5053461;28;20634;-54
2022/03/20 08:25:03;;;;;;;20.63;14.47;;;;;;;;;;5053160;28;20309;-56
2022/03/20 08:27:29;;;;;;;19.20;13.37;;;;;;;;;;5053308;28;20259;-54
2022/03/20 08:29:57;;;;;;;18.37;12.90;;;;;;;;;;5053119;28;20232;-55
2022/03/20 08:32:23;;;;;;;15.60;12.87;;;;;;;;;;5053202;28;20231;-55
2022/03/20 08:34:50;;;;;;;16.10;13.43;;;;;;;;;;5053503;28;20286;-55
2022/03/20 08:37:16;;;;;;;16.50;12.97;;;;;;;;;;5053415;28;20200;-55
2022/03/20 08:39:42;;;;;;;19.43;13.43;;;;;;;;;;5053325;28;20269;-56
2022/03/20 08:42:08;;;;;;;18.13;13.37;;;;;;;;;;5053016;28;20854;-56
2022/03/20 08:44:34;;;;;;;15.57;13.30;;;;;;;;;;5050931;28;20623;-56
2022/03/20 08:47:01;;;;;;;18.00;14.37;;;;;;;;;;5052629;28;20207;-55
2022/03/20 08:49:27;;;;;;;16.47;13.50;;;;;;;;;;5051977;28;20224;-55
2022/03/20 08:51:53;;;;;;;20.73;14.30;;;;;;;;;;5052706;28;20608;-55
2022/03/20 08:54:19;;;;;;;16.77;13.80;;;;;;;;;;5052930;28;20291;-54
2022/03/20 08:56:45;;;;;;;18.30;13.70;;;;;;;;;;5052810;28;20658;-55
2022/03/20 08:59:11;;;;;;;17.90;13.70;;;;;;;;;;5052484;28;20195;-54
2022/03/20 09:01:37;;;;;;;20.67;14.13;;;;;;;;;;5052609;28;20278;-55
2022/03/20 09:04:06;;;;;;;18.47;14.10;;;;;;;;;;5052580;28;20316;-55
2022/03/20 09:06:32;;;;;;;20.37;14.53;;;;;;;;;;5052491;28;20283;-56
2022/03/20 09:08:58;;;;;;;16.97;13.90;;;;;;;;;;5052569;28;20324;-56
2022/03/20 09:11:24;;;;;;;17.20;13.13;;;;;;;;;;5052491;28;20262;-55
2022/03/20 09:13:50;;;;;;;17.03;13.30;;;;;;;;;;5052672;28;20286;-55
2022/03/20 09:19:03;;;;;;;16.80;13.03;;;;;;;;;;5052633;28;20223;-55
2022/03/20 09:21:32;;;;;;;22.27;13.57;;;;;;;;;;5052438;28;20200;-55
2022/03/20 09:23:58;;;;;;;17.67;13.63;;;;;;;;;;5052256;28;20251;-55
2022/03/20 09:26:24;;;;;;;17.03;13.27;;;;;;;;;;5052205;28;20200;-56
2022/03/20 09:28:50;;;;;;;20.90;13.90;;;;;;;;;;5052232;28;20224;-55
2022/03/20 09:31:16;;;;;;;18.43;14.03;;;;;;;;;;5051384;28;20544;-55
2022/03/20 09:33:43;;;;;;;16.27;13.40;;;;;;;;;;5052298;28;20215;-55
2022/03/20 09:36:10;;;;;;;18.33;13.97;;;;;;;;;;5052230;28;20203;-54
2022/03/20 09:38:37;;;;;;;16.03;13.03;;;;;;;;;;5052061;28;20547;-60
2022/03/20 09:41:07;;;;;;;17.47;14.23;;;;;;;;;;5052105;28;20219;-55
2022/03/20 09:43:33;;;;;;;15.87;13.63;;;;;;;;;;5051973;28;20208;-55
2022/03/20 09:45:59;;;;;;;18.37;13.77;;;;;;;;;;5052088;28;20619;-56
2022/03/20 09:48:26;;;;;;;17.67;14.10;;;;;;;;;;5051556;28;20262;-57
2022/03/20 09:50:52;;;;;;;18.80;13.30;;;;;;;;;;5051744;28;20246;-56
2022/03/20 09:53:19;;;;;;;17.50;12.87;;;;;;;;;;5051611;28;20215;-55
2022/03/20 09:55:47;;;;;;;14.93;12.93;;;;;;;;;;5051914;28;20782;-55
2022/03/20 09:58:13;;;;;;;15.83;12.70;;;;;;;;;;5051732;28;20200;-55
2022/03/20 10:00:40;;;;;;;16.53;13.07;;;;;;;;;;5051804;28;20207;-55
2022/03/20 10:03:16;;;;;;;15.47;12.80;;;;;;;;;;5051570;28;20615;-55
2022/03/20 10:05:42;;;;;;;17.27;13.63;;;;;;;;;;5051827;28;20236;-55
2022/03/20 10:08:17;;;;;;;15.73;13.30;;;;;;;;;;5051389;28;20247;-55
2022/03/20 10:10:43;;;;;;;16.80;13.07;;;;;;;;;;5051728;28;20579;-55
2022/03/20 10:13:14;;;;;;;16.30;13.43;;;;;;;;;;5051497;28;20230;-55
2022/03/20 10:15:40;;;;;;;16.03;12.60;;;;;;;;;;5051694;28;20200;-55
2022/03/20 10:18:08;;;;;;;15.53;13.07;;;;;;;;;;5051486;28;20192;-55
2022/03/20 10:20:38;;;;;;;13.60;12.17;;;;;;;;;;5051420;28;20199;-55
2022/03/20 10:23:05;;;;;;;16.37;12.97;;;;;;;;;;5051711;28;20200;-57
2022/03/20 10:25:31;;;;;;;16.30;12.73;;;;;;;;;;5051406;28;20255;-57
2022/03/20 10:27:57;;;;;;;16.03;12.10;;;;;;;;;;5051781;28;20252;-58
2022/03/20 10:30:25;;;;;;;15.00;12.20;;;;;;;;;;5051484;28;20697;-57
2022/03/20 10:32:51;;;;;;;14.97;11.77;;;;;;;;;;5051667;28;20210;-56
2022/03/20 10:35:17;;;;;;;15.43;11.27;;;;;;;;;;5051749;28;20207;-57
2022/03/20 10:37:48;;;;;;;14.60;11.50;;;;;;;;;;5051666;28;20242;-56
2022/03/20 10:40:15;;;;;;;14.70;11.43;;;;;;;;;;5051710;28;20200;-57
2022/03/20 10:42:42;;;;;;;18.17;11.07;;;;;;;;;;5053211;28;20203;-56
2022/03/20 10:45:08;;;;;;;13.97;11.60;;;;;;;;;;5055621;28;20344;-56
2022/03/20 10:47:35;;;;;;;18.00;11.43;;;;;;;;;;5055465;28;20207;-56
2022/03/20 10:50:03;;;;;;;13.50;11.43;;;;;;;;;;5055524;28;20202;-58
2022/03/20 10:52:30;;;;;;;12.40;10.60;;;;;;;;;;5055327;28;20214;-57
2022/03/20 10:54:56;;;;;;;13.87;10.80;;;;;;;;;;5055410;28;20200;-57
2022/03/20 10:57:31;;;;;;;11.83;10.07;;;;;;;;;;5055186;28;20192;-57
2022/03/20 10:59:58;;;;;;;14.83;10.87;;;;;;;;;;5055350;28;20550;-58
2022/03/20 11:02:25;;;;;;;13.03;10.17;;;;;;;;;;5054994;28;20199;-57
2022/03/20 11:04:52;;;;;;;13.10;11.00;;;;;;;;;;5055155;28;20283;-56
2022/03/20 11:07:19;;;;;;;12.77;10.83;;;;;;;;;;5054917;28;20200;-56
2022/03/20 11:09:45;;;;;;;12.57;10.37;;;;;;;;;;5055185;28;20620;-55
2022/03/20 11:12:15;;;;;;;13.87;9.97;;;;;;;;;;5054955;28;20212;-56
2022/03/20 11:14:42;;;;;;;13.67;10.20;;;;;;;;;;5054986;28;20196;-58
2022/03/20 11:17:10;;;;;;;13.50;10.43;;;;;;;;;;5054612;28;20693;-57
2022/03/20 11:19:37;;;;;;;13.37;10.03;;;;;;;;;;5054948;28;20192;-56
2022/03/20 11:22:06;;;;;;;12.93;10.17;;;;;;;;;;5055008;28;20201;-56
2022/03/20 11:24:33;;;;;;;14.17;10.57;;;;;;;;;;5054630;28;20747;-59
2022/03/20 11:27:01;;;;;;;12.97;10.20;;;;;;;;;;5054983;28;20204;-56
2022/03/20 11:29:29;;;;;;;12.13;10.20;;;;;;;;;;5054886;28;20223;-56
2022/03/20 11:31:55;;;;;;;12.13;10.43;;;;;;;;;;5054769;28;20203;-57
2022/03/20 11:34:22;;;;;;;13.73;10.33;;;;;;;;;;5054639;28;20196;-58
2022/03/20 11:37:02;;;;;;;12.13;9.73;;;;;;;;;;5054639;28;20200;-57
2022/03/20 11:39:29;;;;;;;11.00;9.80;;;;;;;;;;5054683;28;20196;-57
2022/03/20 11:42:10;;;;;;;12.73;10.43;;;;;;;;;;5054579;28;20204;-57
2022/03/20 11:44:36;;;;;;;11.20;10.03;;;;;;;;;;5052452;28;20228;-55
2022/03/20 11:47:22;;;;;;;12.73;10.87;;;;;;;;;;5054252;28;20223;-57
2022/03/20 11:50:08;;;;;;;13.27;10.90;;;;;;;;;;5054188;28;20204;-59
2022/03/20 11:52:45;;;;;;;14.17;10.40;;;;;;;;;;5051850;28;20200;-58
2022/03/20 11:55:26;;;;;;;13.60;11.37;;;;;;;;;;5052393;28;20666;-58
2022/03/20 11:57:52;;;;;;;13.97;10.00;;;;;;;;;;5053928;28;20226;-58
2022/03/20 12:00:22;;;;;;;12.30;10.97;;;;;;;;;;5053847;28;20199;-59
2022/03/20 12:02:59;;;;;;;13.20;10.93;;;;;;;;;;5053725;28;20258;-59
2022/03/20 12:05:30;;;;;;;13.40;11.03;;;;;;;;;;5053525;28;20669;-58
2022/03/20 12:07:59;;;;;;;14.37;11.10;;;;;;;;;;5053758;28;20223;-57
2022/03/20 12:10:30;;;;;;;12.03;10.73;;;;;;;;;;5053705;28;20239;-56
2022/03/20 12:13:04;;;;;;;12.20;10.90;;;;;;;;;;5053730;28;20292;-59
2022/03/20 12:15:31;;;;;;;14.37;10.77;;;;;;;;;;5053554;28;20196;-56
2022/03/20 12:18:01;;;;;;;16.80;11.03;;;;;;;;;;5053418;28;20203;-58
2022/03/20 12:20:45;;;;;;;14.17;11.87;;;;;;;;;;5053399;28;20614;-58
2022/03/20 12:23:38;;;;;;;16.03;11.87;;;;;;;;;;5053349;28;20646;-58
2022/03/20 12:26:34;;;;;;;12.73;11.07;;;;;;;;;;5053511;28;20208;-58
2022/03/20 12:29:19;;;;;;;14.50;11.37;;;;;;;;;;4991649;28;20233;-56
2022/03/20 12:31:56;;;;;;;16.43;11.27;;;;;;;;;;5046633;28;20180;-56
2022/03/20 12:34:22;;;;;;;14.60;10.20;;;;;;;;;;5052916;28;20486;-57
2022/03/20 12:36:48;;;;;;;13.30;11.57;;;;;;;;;;5053192;28;20215;-57
2022/03/20 12:39:14;;;;;;;12.00;10.73;;;;;;;;;;5053041;28;20227;-57
2022/03/20 12:41:40;;;;;;;13.30;11.00;;;;;;;;;;5053054;28;20207;-58
2022/03/20 12:44:10;;;;;;;14.37;11.40;;;;;;;;;;5052994;28;20598;-58
2022/03/20 12:46:41;;;;;;;12.90;11.13;;;;;;;;;;5052720;28;20216;-57
2022/03/20 12:49:09;;;;;;;11.70;10.40;;;;;;;;;;5052757;28;20881;-57
2022/03/20 12:51:36;;;;;;;12.27;10.97;;;;;;;;;;5052779;28;20744;-58
2022/03/20 12:54:04;;;;;;;11.90;10.27;;;;;;;;;;5052952;28;20246;-57
2022/03/20 12:56:32;;;;;;;12.60;9.50;;;;;;;;;;5052638;28;20291;-57
2022/03/20 12:58:58;;;;;;;13.00;10.10;;;;;;;;;;5052760;28;20200;-57
2022/03/20 13:01:27;;;;;;;10.50;9.27;;;;;;;;;;5052354;28;20192;-58
2022/03/20 13:03:53;;;;;;;12.07;9.63;;;;;;;;;;5052505;28;20269;-56
2022/03/20 13:06:27;;;;;;;11.43;9.80;;;;;;;;;;5051105;28;20243;-58
2022/03/20 13:08:53;;;;;;;11.97;10.30;;;;;;;;;;5052222;28;20228;-58
2022/03/20 13:14:05;;;;;;;11.70;10.10;;;;;;;;;;5052123;28;20195;-57
2022/03/20 13:16:34;;;;;;;10.73;9.67;;;;;;;;;;5052080;28;20192;-57
2022/03/20 13:19:00;;;;;;;12.03;9.97;;;;;;;;;;5052043;28;20586;-57
2022/03/20 13:21:29;;;;;;;11.43;9.70;;;;;;;;;;5051918;28;20295;-57
2022/03/20 13:23:56;;;;;;;11.30;10.17;;;;;;;;;;5051809;28;20240;-57
2022/03/20 13:26:22;;;;;;;11.00;9.63;;;;;;;;;;5051856;28;20203;-59
2022/03/20 13:28:48;;;;;;;12.23;9.37;;;;;;;;;;5051915;28;20282;-58
2022/03/20 13:31:16;;;;;;;11.43;10.23;;;;;;;;;;5051812;28;20204;-59
2022/03/20 13:33:45;;;;;;;10.23;9.23;;;;;;;;;;5052076;28;20196;-59
2022/03/20 13:36:11;;;;;;;12.07;10.17;;;;;;;;;;5051872;28;20196;-56
2022/03/20 13:38:39;;;;;;;15.70;9.90;;;;;;;;;;5051800;28;20203;-58
2022/03/20 13:41:06;;;;;;;13.57;9.50;;;;;;;;;;5052067;28;20227;-58
2022/03/20 13:43:34;;;;;;;10.93;9.53;;;;;;;;;;5051684;28;20200;-57
2022/03/20 13:46:09;;;;;;;11.63;9.87;;;;;;;;;;5051915;28;20204;-58
2022/03/20 13:48:36;;;;;;;10.30;9.20;;;;;;;;;;5051465;28;20231;-57
2022/03/20 13:51:04;;;;;;;11.83;9.33;;;;;;;;;;5051625;28;20196;-57
2022/03/20 13:53:31;;;;;;;14.80;9.10;;;;;;;;;;5051510;28;20265;-57
2022/03/20 13:55:58;;;;;;;12.07;9.30;;;;;;;;;;5051748;28;20281;-58
2022/03/20 13:58:24;;;;;;;11.03;8.70;;;;;;;;;;5051473;28;20207;-56
2022/03/20 14:00:59;;;;;;;12.13;9.47;;;;;;;;;;5051512;28;20196;-58
2022/03/20 14:03:30;;;;;;;11.73;9.50;;;;;;;;;;5051423;28;20309;-59
2022/03/20 14:05:56;;;;;;;13.37;9.93;;;;;;;;;;5051544;28;20685;-57
2022/03/20 14:08:22;;;;;;;11.43;10.23;;;;;;;;;;5051515;28;20239;-57
2022/03/20 14:10:49;;;;;;;11.27;10.07;;;;;;;;;;5051152;28;20184;-57
2022/03/20 14:13:18;;;;;;;10.93;9.57;;;;;;;;;;5051301;28;20192;-57
2022/03/20 14:15:52;;;;;;;13.23;9.63;;;;;;;;;;5051237;28;20204;-58
2022/03/20 14:18:18;;;;;;;13.50;9.37;;;;;;;;;;5050618;28;20287;-61
2022/03/20 14:20:44;;;;;;;11.80;9.77;;;;;;;;;;5051317;28;20202;-58
2022/03/20 14:23:12;;;;;;;13.40;10.00;;;;;;;;;;5051131;28;20575;-56
2022/03/20 14:25:41;;;;;;;10.70;9.40;;;;;;;;;;5050838;28;20718;-57
2022/03/20 14:28:08;;;;;;;12.30;9.83;;;;;;;;;;5050932;28;20220;-58
2022/03/20 14:41:37;;;;;;;12.03;9.47;;;;;;;;;;5050704;28;20532;-58
2022/03/20 14:44:07;;;;;;;10.13;9.13;;;;;;;;;;5050860;28;20244;-58
2022/03/20 14:46:35;;;;;;;10.90;9.80;;;;;;;;;;5050838;28;20223;-57
2022/03/20 14:49:01;;;;;;;10.47;9.37;;;;;;;;;;5050878;28;20224;-57
2022/03/20 14:51:27;;;;;;;10.40;9.30;;;;;;;;;;5050592;28;20258;-58
2022/03/20 14:53:54;;;;;;;12.33;9.77;;;;;;;;;;5050775;28;20569;-58
2022/03/20 14:56:19;;;;;;;9.67;8.67;;;;;;;;;;5050678;28;20204;-59
2022/03/20 14:58:45;;;;;;;11.43;9.50;;;;;;;;;;5050998;28;20299;-59
2022/03/20 15:01:11;;;;;;;11.37;8.93;;;;;;;;;;5050787;28;20615;-56
2022/03/20 15:03:39;;;;;;;10.30;9.00;;;;;;;;;;5050598;28;20200;-58
2022/03/20 15:06:05;;;;;;;10.03;8.80;;;;;;;;;;5050896;28;20254;-57
2022/03/20 15:11:26;;;;;;;14.03;8.90;;;;;;;;;;5051010;28;20206;-57